TimeCDT,TemperatureF,Dew PointF,Humidity,Sea Level PressureIn,VisibilityMPH,Wind Direction,Wind SpeedMPH,Gust SpeedMPH,PrecipitationIn,Events,Conditions,WindDirDegrees,DateUTC
12:52 AM,77.0,69.1,76,29.88,10.0,SSE,6.9,-,N/A,,Clear,160,2013-08-21 05:52:00
1:52 AM,72.0,69.1,91,29.89,10.0,SSE,5.8,-,N/A,,Clear,160,2013-08-21 06:52:00
2:52 AM,73.0,69.1,87,29.89,10.0,South,8.1,-,N/A,,Clear,180,2013-08-21 07:52:00
3:52 AM,71.1,68.0,90,29.89,10.0,ESE,6.9,-,N/A,,Clear,120,2013-08-21 08:52:00
4:52 AM,73.0,68.0,84,29.89,10.0,Calm,Calm,-,N/A,,Clear,0,2013-08-21 09:52:00
5:52 AM,73.0,66.9,81,29.90,10.0,South,6.9,-,N/A,,Clear,180,2013-08-21 10:52:00
6:52 AM,73.0,66.9,81,29.90,10.0,South,11.5,-,N/A,,Clear,180,2013-08-21 11:52:00
7:52 AM,75.0,66.9,76,29.91,10.0,South,10.4,17.3,N/A,,Clear,190,2013-08-21 12:52:00
8:52 AM,75.9,68.0,76,29.91,10.0,South,11.5,-,N/A,,Clear,180,2013-08-21 13:52:00
9:52 AM,79.0,69.1,72,29.91,10.0,South,15.0,-,N/A,,Clear,190,2013-08-21 14:52:00
10:52 AM,81.0,70.0,69,29.92,10.0,SSW,10.4,-,N/A,,Clear,210,2013-08-21 15:52:00
11:52 AM,82.9,70.0,65,29.93,10.0,SSW,8.1,-,N/A,,Clear,210,2013-08-21 16:52:00
12:52 PM,84.0,71.1,65,29.93,10.0,SSW,8.1,-,N/A,,Clear,200,2013-08-21 17:52:00
1:52 PM,87.1,72.0,61,29.92,10.0,South,8.1,-,N/A,,Clear,190,2013-08-21 18:52:00
2:52 PM,89.1,73.9,61,29.92,10.0,SSW,10.4,-,N/A,,Clear,200,2013-08-21 19:52:00
3:52 PM,89.1,73.9,61,29.91,10.0,South,10.4,-,N/A,,Clear,170,2013-08-21 20:52:00
4:52 PM,88.0,73.9,63,29.91,10.0,South,6.9,-,N/A,,Clear,190,2013-08-21 21:52:00
5:52 PM,88.0,75.0,65,29.91,10.0,ESE,8.1,-,N/A,,Clear,110,2013-08-21 22:52:00
6:52 PM,86.0,73.9,67,29.91,10.0,ESE,6.9,-,N/A,,Clear,110,2013-08-21 23:52:00
7:52 PM,84.0,75.0,74,29.91,10.0,East,8.1,-,N/A,,Clear,80,2013-08-22 00:52:00
8:52 PM,82.9,73.0,72,29.93,10.0,East,6.9,-,N/A,,Clear,80,2013-08-22 01:52:00
9:52 PM,82.0,72.0,71,29.93,10.0,East,8.1,-,N/A,,Clear,80,2013-08-22 02:52:00
10:52 PM,80.1,72.0,76,29.94,10.0,East,6.9,-,N/A,,Clear,90,2013-08-22 03:52:00
11:52 PM,77.0,73.0,88,29.94,10.0,ESE,6.9,-,0.00,Rain,Light Rain,120,2013-08-22 04:52:00